LHSMLHDC

Guest
Details From LHSM - BALATON
To LHDC - DEBRECEN
Flight Number -
Tags generated
Created
Modified
Stats Distance 188 nm / 349 km
Max Altitude 21,100 ft / 6,431 m
Waypoints 3
Social Downloads 3
Likes 0
Share VATSIM

Download

Looking for another format? Having issues loading an existing format? Contact us
Advertisement - Login to hide

Notes

Basic altitude profile: - Ascent Rate: 2500ft/min - Ascent Speed: 250kts - Cruise Altitude: 20000ft - Cruise Speed: 350kts - Descent Rate: 2000ft/min - Descent Speed: 250kts Options: - Use NATs: yes - Use PACOTS: yes - Use low airways: yes - Use high airways: yes

Route

LHSM ERLOS LHDC

ID Type Via Altitude Latitude Longitude Leg Dist Tot Dist Heading (true) Name
O LHSM APT - 0 ft / 0 m 46.68829˚ 17.15766˚ - 0 nm - BALATON
ERLOS FIX - 21,100 ft / 6,431 m 47.06750˚ 19.27500˚ 89 nm 89 nm 75° / 76° -
O LHDC APT - 0 ft / 0 m 47.48942˚ 21.61458˚ 98 nm 188 nm 74° / 76° DEBRECEN

Altitude Profile

Advertisement - Login to hide

Weather


0- 5 10 15 20 25 30 35+ Temperature / ° C

Clouds and Precipitation
Forecast for 2017-12-12 06:00 UTC. Updated 2 hours ago

Ground ~20,000 ft ~40,000 ft Winds

LHSM

Details ICAO LHSM (SOB)
Name BALATON
Region Hungary
Timezone Europe/Budapest (UTC+1.0)
Stats Elevation 408 ft / 124 m (AMSL)
Location 46.688289° 17.157658°
Runways 2
Magnetic Variation 4.256° E

METAR

LHSM 120415Z 18022KT CAVOK 15/06 Q1000

Decode

TAF

Not found

Departure Runways

ID Width Length Bearing (true) Bearing (mag) Surface Threshold Offset Overrun Length
16 197 ft / 60 m 8,215 ft / 2,504 m 165.38° 161.12° Concrete 0 ft / 0 m 0 ft / 0 m
17R 212 ft / 65 m 3,101 ft / 945 m 165.17° 160.91° Grass 0 ft / 0 m 0 ft / 0 m
34 197 ft / 60 m 8,215 ft / 2,504 m 345.38° 341.12° Concrete 0 ft / 0 m 0 ft / 0 m
35L 212 ft / 65 m 3,101 ft / 945 m 345.17° 340.91° Grass 0 ft / 0 m 0 ft / 0 m

LHDC

Details ICAO LHDC (DEB)
Name DEBRECEN
Region Hungary
Timezone Europe/Budapest (UTC+1.0)
Stats Elevation 359 ft / 109 m (AMSL)
Location 47.489417° 21.614576°
Runways 2
Magnetic Variation 5.244° E

METAR

LHDC 120415Z 18018KT CAVOK 10/04 Q1006 NOSIG

Decode

TAF

Not found

Destination Runways

ID Width Length Bearing (true) Bearing (mag) Surface Threshold Offset Overrun Length
05L 230 ft / 70 m 8,081 ft / 2,463 m 47.94° 42.70° Concrete 0 ft / 0 m 0 ft / 0 m
05R 131 ft / 40 m 8,186 ft / 2,495 m 47.82° 42.58° Concrete 0 ft / 0 m 49 ft / 15 m
23L 131 ft / 40 m 8,186 ft / 2,495 m 227.84° 222.60° Concrete 979 ft / 298 m 49 ft / 15 m
23R 230 ft / 70 m 8,081 ft / 2,463 m 227.95° 222.71° Concrete 0 ft / 0 m 0 ft / 0 m

Approach Navaids

Runway Type Ident Frequency Range Bearing (true) Bearing (mag) Slope Elevation
05R Localiser DCN 110.10 MHz 18 nm / 33 km 47.87° 42.62° - 359 ft / 109 m (AMSL)
05R Glidescope DCN 110.10 MHz 10 nm / 19 km 47.83° 42.59° 3.00° 359 ft / 109 m (AMSL)

Popular Alternatives